sensor_id;sensor_type;location;lat;lon;timestamp;pressure;altitude;pressure_sealevel;temperature;humidity
23241;BME280;11789;53.482;9.862;2023-04-16T00:00:14;101938.78;;;7.66;100.00
23241;BME280;11789;53.482;9.862;2023-04-16T00:02:49;101940.50;;;7.67;100.00
23241;BME280;11789;53.482;9.862;2023-04-16T00:05:15;101937.94;;;7.67;100.00
23241;BME280;11789;53.482;9.862;2023-04-16T00:07:40;101940.28;;;7.60;100.00
23241;BME280;11789;53.482;9.862;2023-04-16T00:10:06;101946.22;;;7.57;100.00
23241;BME280;11789;53.482;9.862;2023-04-16T00:12:32;101943.66;;;7.57;100.00
23241;BME280;11789;53.482;9.862;2023-04-16T00:14:58;101942.72;;;7.55;100.00
23241;BME280;11789;53.482;9.862;2023-04-16T00:17:23;101944.34;;;7.51;100.00
23241;BME280;11789;53.482;9.862;2023-04-16T00:19:49;101941.84;;;7.54;100.00
23241;BME280;11789;53.482;9.862;2023-04-16T00:22:14;101948.78;;;7.56;100.00
23241;BME280;11789;53.482;9.862;2023-04-16T00:24:40;101946.19;;;7.56;100.00
23241;BME280;11789;53.482;9.862;2023-04-16T00:27:06;101947.75;;;7.50;100.00
23241;BME280;11789;53.482;9.862;2023-04-16T00:29:32;101947.75;;;7.50;100.00
23241;BME280;11789;53.482;9.862;2023-04-16T00:31:59;101943.41;;;7.49;100.00
23241;BME280;11789;53.482;9.862;2023-04-16T00:34:25;101939.94;;;7.47;100.00
23241;BME280;11789;53.482;9.862;2023-04-16T00:36:50;101939.81;;;7.43;100.00
23241;BME280;11789;53.482;9.862;2023-04-16T00:39:16;101944.03;;;7.41;100.00
23241;BME280;11789;53.482;9.862;2023-04-16T00:41:45;101955.13;;;7.40;100.00
23241;BME280;11789;53.482;9.862;2023-04-16T00:44:10;101957.72;;;7.40;100.00
23241;BME280;11789;53.482;9.862;2023-04-16T00:46:36;101965.34;;;7.37;100.00
23241;BME280;11789;53.482;9.862;2023-04-16T00:49:02;101955.94;;;7.37;100.00
23241;BME280;11789;53.482;9.862;2023-04-16T00:51:28;101964.56;;;7.39;100.00
23241;BME280;11789;53.482;9.862;2023-04-16T00:53:56;101955.94;;;7.37;100.00
23241;BME280;11789;53.482;9.862;2023-04-16T00:56:23;101959.22;;;7.33;100.00
23241;BME280;11789;53.482;9.862;2023-04-16T00:58:49;101957.47;;;7.31;100.00
23241;BME280;11789;53.482;9.862;2023-04-16T01:01:15;101955.75;;;7.31;100.00
23241;BME280;11789;53.482;9.862;2023-04-16T01:03:45;101954.81;;;7.29;100.00
23241;BME280;11789;53.482;9.862;2023-04-16T01:06:11;101970.31;;;7.31;100.00
23241;BME280;11789;53.482;9.862;2023-04-16T01:08:37;101967.81;;;7.34;100.00
23241;BME280;11789;53.482;9.862;2023-04-16T01:11:03;101967.06;;;7.36;100.00
23241;BME280;11789;53.482;9.862;2023-04-16T01:13:29;101966.31;;;7.40;100.00
23241;BME280;11789;53.482;9.862;2023-04-16T01:15:54;101971.53;;;7.43;100.00
23241;BME280;11789;53.482;9.862;2023-04-16T01:18:21;101971.59;;;7.45;100.00
23241;BME280;11789;53.482;9.862;2023-04-16T01:20:47;101977.62;;;7.45;100.00
23241;BME280;11789;53.482;9.862;2023-04-16T01:23:14;101979.22;;;7.42;100.00
23241;BME280;11789;53.482;9.862;2023-04-16T01:25:39;101981.75;;;7.40;100.00
23241;BME280;11789;53.482;9.862;2023-04-16T01:28:06;101979.13;;;7.39;100.00
23241;BME280;11789;53.482;9.862;2023-04-16T01:30:31;101982.63;;;7.41;100.00
23241;BME280;11789;53.482;9.862;2023-04-16T01:32:58;101980.97;;;7.43;100.00
23241;BME280;11789;53.482;9.862;2023-04-16T01:35:23;101981.75;;;7.40;100.00
23241;BME280;11789;53.482;9.862;2023-04-16T01:37:50;101992.16;;;7.45;100.00
23241;BME280;11789;53.482;9.862;2023-04-16T01:40:16;101994.66;;;7.42;100.00
23241;BME280;11789;53.482;9.862;2023-04-16T01:42:42;101995.44;;;7.39;100.00
23241;BME280;11789;53.482;9.862;2023-04-16T01:45:10;101996.41;;;7.43;100.00
23241;BME280;11789;53.482;9.862;2023-04-16T01:47:36;101993.06;;;7.45;100.00
23241;BME280;11789;53.482;9.862;2023-04-16T01:50:04;101996.59;;;7.49;100.00
23241;BME280;11789;53.482;9.862;2023-04-16T01:52:29;101999.84;;;7.43;100.00
23241;BME280;11789;53.482;9.862;2023-04-16T01:54:55;102003.25;;;7.42;100.00
23241;BME280;11789;53.482;9.862;2023-04-16T01:57:21;101997.28;;;7.43;100.00
23241;BME280;11789;53.482;9.862;2023-04-16T01:59:49;101997.19;;;7.40;100.00
23241;BME280;11789;53.482;9.862;2023-04-16T02:02:15;101999.72;;;7.39;100.00
23241;BME280;11789;53.482;9.862;2023-04-16T02:04:44;102008.25;;;7.38;100.00
23241;BME280;11789;53.482;9.862;2023-04-16T02:07:11;101998.00;;;7.39;100.00
23241;BME280;11789;53.482;9.862;2023-04-16T02:09:37;102010.88;;;7.39;100.00
23241;BME280;11789;53.482;9.862;2023-04-16T02:12:03;102004.00;;;7.40;100.00
23241;BME280;11789;53.482;9.862;2023-04-16T02:14:30;102003.97;;;7.38;100.00
23241;BME280;11789;53.482;9.862;2023-04-16T02:16:56;102004.81;;;7.37;100.00
23241;BME280;11789;53.482;9.862;2023-04-16T02:19:22;102003.00;;;7.35;100.00
23241;BME280;11789;53.482;9.862;2023-04-16T02:21:47;102010.81;;;7.38;100.00
23241;BME280;11789;53.482;9.862;2023-04-16T02:24:13;102009.06;;;7.35;100.00
23241;BME280;11789;53.482;9.862;2023-04-16T02:26:39;102018.44;;;7.35;100.00
23241;BME280;11789;53.482;9.862;2023-04-16T02:29:05;102016.81;;;7.37;100.00
23241;BME280;11789;53.482;9.862;2023-04-16T02:31:31;102011.66;;;7.37;100.00
23241;BME280;11789;53.482;9.862;2023-04-16T02:33:57;102018.50;;;7.36;100.00
23241;BME280;11789;53.482;9.862;2023-04-16T02:36:22;102015.97;;;7.38;100.00
23241;BME280;11789;53.482;9.862;2023-04-16T02:38:48;102010.78;;;7.36;100.00
23241;BME280;11789;53.482;9.862;2023-04-16T02:41:13;102009.97;;;7.37;100.00
23241;BME280;11789;53.482;9.862;2023-04-16T02:43:39;102012.56;;;7.39;100.00
23241;BME280;11789;53.482;9.862;2023-04-16T02:46:05;102008.25;;;7.38;100.00
23241;BME280;11789;53.482;9.862;2023-04-16T02:48:30;102013.44;;;7.39;100.00
23241;BME280;11789;53.482;9.862;2023-04-16T02:50:56;102010.06;;;7.40;100.00
23241;BME280;11789;53.482;9.862;2023-04-16T02:53:22;102004.00;;;7.40;100.00
23241;BME280;11789;53.482;9.862;2023-04-16T02:55:51;102019.44;;;7.40;100.00
23241;BME280;11789;53.482;9.862;2023-04-16T02:58:18;102012.63;;;7.40;100.00
23241;BME280;11789;53.482;9.862;2023-04-16T03:00:44;102016.00;;;7.39;100.00
23241;BME280;11789;53.482;9.862;2023-04-16T03:03:10;102015.22;;;7.40;100.00
23241;BME280;11789;53.482;9.862;2023-04-16T03:05:35;102023.84;;;7.42;100.00
23241;BME280;11789;53.482;9.862;2023-04-16T03:08:05;102027.28;;;7.43;100.00
23241;BME280;11789;53.482;9.862;2023-04-16T03:10:31;102024.72;;;7.43;100.00
23241;BME280;11789;53.482;9.862;2023-04-16T03:12:57;102027.25;;;7.41;100.00
23241;BME280;11789;53.482;9.862;2023-04-16T03:15:23;102028.97;;;7.42;100.00
23241;BME280;11789;53.482;9.862;2023-04-16T03:17:49;102029.97;;;7.46;100.00
23241;BME280;11789;53.482;9.862;2023-04-16T03:20:15;102028.25;;;7.46;100.00
23241;BME280;11789;53.482;9.862;2023-04-16T03:22:42;102027.38;;;7.46;100.00
23241;BME280;11789;53.482;9.862;2023-04-16T03:25:10;102026.56;;;7.47;100.00
23241;BME280;11789;53.482;9.862;2023-04-16T03:27:35;102024.84;;;7.47;100.00
23241;BME280;11789;53.482;9.862;2023-04-16T03:30:01;102030.91;;;7.49;100.00
23241;BME280;11789;53.482;9.862;2023-04-16T03:32:27;102022.38;;;7.50;100.00
23241;BME280;11789;53.482;9.862;2023-04-16T03:34:53;102020.75;;;7.54;100.00
23241;BME280;11789;53.482;9.862;2023-04-16T03:37:18;102025.12;;;7.57;100.00
23241;BME280;11789;53.482;9.862;2023-04-16T03:39:44;102033.69;;;7.56;100.00
23241;BME280;11789;53.482;9.862;2023-04-16T03:42:10;102029.31;;;7.53;100.00
23241;BME280;11789;53.482;9.862;2023-04-16T03:44:35;102030.13;;;7.52;100.00
23241;BME280;11789;53.482;9.862;2023-04-16T03:47:00;102032.69;;;7.50;100.00
23241;BME280;11789;53.482;9.862;2023-04-16T03:49:26;102036.87;;;7.48;100.00
23241;BME280;11789;53.482;9.862;2023-04-16T03:51:51;102039.44;;;7.48;100.00
23241;BME280;11789;53.482;9.862;2023-04-16T03:54:17;102030.81;;;7.46;100.00
23241;BME280;11789;53.482;9.862;2023-04-16T03:56:42;102031.59;;;7.44;100.00
23241;BME280;11789;53.482;9.862;2023-04-16T03:59:08;102035.97;;;7.46;100.00
23241;BME280;11789;53.482;9.862;2023-04-16T04:01:34;102036.87;;;7.48;100.00
23241;BME280;11789;53.482;9.862;2023-04-16T04:04:00;102040.31;;;7.49;100.00
23241;BME280;11789;53.482;9.862;2023-04-16T04:06:26;102036.00;;;7.48;100.00
23241;BME280;11789;53.482;9.862;2023-04-16T04:08:52;102036.00;;;7.48;100.00
23241;BME280;11789;53.482;9.862;2023-04-16T04:11:17;102036.87;;;7.48;100.00
23241;BME280;11789;53.482;9.862;2023-04-16T04:13:43;102034.31;;;7.48;100.00
23241;BME280;11789;53.482;9.862;2023-04-16T04:16:09;102048.00;;;7.47;100.00
23241;BME280;11789;53.482;9.862;2023-04-16T04:18:34;102036.00;;;7.48;100.00
23241;BME280;11789;53.482;9.862;2023-04-16T04:21:07;102045.41;;;7.46;100.00
23241;BME280;11789;53.482;9.862;2023-04-16T04:23:33;102058.25;;;7.46;100.00
23241;BME280;11789;53.482;9.862;2023-04-16T04:25:59;102051.31;;;7.43;100.00
23241;BME280;11789;53.482;9.862;2023-04-16T04:28:31;102057.44;;;7.47;100.00
23241;BME280;11789;53.482;9.862;2023-04-16T04:31:06;102057.31;;;7.44;100.00
23241;BME280;11789;53.482;9.862;2023-04-16T04:33:31;102058.31;;;7.47;100.00
23241;BME280;11789;53.482;9.862;2023-04-16T04:35:57;102056.69;;;7.51;100.00
23241;BME280;11789;53.482;9.862;2023-04-16T04:38:23;102067.87;;;7.51;100.00
23241;BME280;11789;53.482;9.862;2023-04-16T04:40:50;102067.03;;;7.52;100.00
23241;BME280;11789;53.482;9.862;2023-04-16T04:43:17;102060.06;;;7.50;100.00
23241;BME280;11789;53.482;9.862;2023-04-16T04:45:42;102066.94;;;7.49;100.00
23241;BME280;11789;53.482;9.862;2023-04-16T04:48:11;102059.16;;;7.48;100.00
23241;BME280;11789;53.482;9.862;2023-04-16T04:50:37;102065.97;;;7.46;100.00
23241;BME280;11789;53.482;9.862;2023-04-16T04:53:03;102072.81;;;7.45;100.00
23241;BME280;11789;53.482;9.862;2023-04-16T04:55:37;102071.00;;;7.43;100.00
23241;BME280;11789;53.482;9.862;2023-04-16T04:58:04;102067.56;;;7.42;100.00
23241;BME280;11789;53.482;9.862;2023-04-16T05:00:30;102080.47;;;7.44;100.00
23241;BME280;11789;53.482;9.862;2023-04-16T05:02:56;102077.06;;;7.45;100.00
23241;BME280;11789;53.482;9.862;2023-04-16T05:05:21;102081.41;;;7.46;100.00
23241;BME280;11789;53.482;9.862;2023-04-16T05:07:47;102081.41;;;7.46;100.00
23241;BME280;11789;53.482;9.862;2023-04-16T05:10:13;102082.28;;;7.46;100.00
23241;BME280;11789;53.482;9.862;2023-04-16T05:12:38;102083.16;;;7.47;100.00
23241;BME280;11789;53.482;9.862;2023-04-16T05:15:04;102080.63;;;7.48;100.00
23241;BME280;11789;53.482;9.862;2023-04-16T05:17:30;102084.94;;;7.49;100.00
23241;BME280;11789;53.482;9.862;2023-04-16T05:19:55;102082.38;;;7.49;100.00
23241;BME280;11789;53.482;9.862;2023-04-16T05:22:21;102082.38;;;7.49;100.00
23241;BME280;11789;53.482;9.862;2023-04-16T05:24:46;102088.44;;;7.51;100.00
23241;BME280;11789;53.482;9.862;2023-04-16T05:27:12;102086.72;;;7.50;100.00
23241;BME280;11789;53.482;9.862;2023-04-16T05:29:37;102090.97;;;7.50;100.00
23241;BME280;11789;53.482;9.862;2023-04-16T05:32:03;102094.44;;;7.50;100.00
23241;BME280;11789;53.482;9.862;2023-04-16T05:34:30;102102.19;;;7.52;100.00
23241;BME280;11789;53.482;9.862;2023-04-16T05:36:55;102102.22;;;7.53;100.00
23241;BME280;11789;53.482;9.862;2023-04-16T05:39:21;102106.53;;;7.54;100.00
23241;BME280;11789;53.482;9.862;2023-04-16T05:41:46;102109.13;;;7.54;100.00
23241;BME280;11789;53.482;9.862;2023-04-16T05:44:12;102104.81;;;7.53;100.00
23241;BME280;11789;53.482;9.862;2023-04-16T05:46:37;102111.69;;;7.54;100.00
23241;BME280;11789;53.482;9.862;2023-04-16T05:49:03;102113.38;;;7.54;100.00
23241;BME280;11789;53.482;9.862;2023-04-16T05:51:28;102116.84;;;7.54;100.00
23241;BME280;11789;53.482;9.862;2023-04-16T05:53:53;102116.91;;;7.56;100.00
23241;BME280;11789;53.482;9.862;2023-04-16T05:56:19;102120.44;;;7.60;100.00
23241;BME280;11789;53.482;9.862;2023-04-16T05:58:46;102118.72;;;7.60;100.00
23241;BME280;11789;53.482;9.862;2023-04-16T06:01:14;102126.44;;;7.60;100.00
23241;BME280;11789;53.482;9.862;2023-04-16T06:03:40;102125.69;;;7.63;100.00
23241;BME280;11789;53.482;9.862;2023-04-16T06:06:05;102123.97;;;7.63;100.00
23241;BME280;11789;53.482;9.862;2023-04-16T06:08:33;102127.53;;;7.67;100.00
23241;BME280;11789;53.482;9.862;2023-04-16T06:10:58;102120.66;;;7.66;100.00
23241;BME280;11789;53.482;9.862;2023-04-16T06:13:24;102128.44;;;7.69;100.00
23241;BME280;11789;53.482;9.862;2023-04-16T06:15:51;102127.56;;;7.68;100.00
23241;BME280;11789;53.482;9.862;2023-04-16T06:18:19;102127.59;;;7.70;100.00
23241;BME280;11789;53.482;9.862;2023-04-16T06:20:46;102134.47;;;7.69;100.00
23241;BME280;11789;53.482;9.862;2023-04-16T06:23:11;102129.28;;;7.68;100.00
23241;BME280;11789;53.482;9.862;2023-04-16T06:25:37;102131.00;;;7.69;100.00
23241;BME280;11789;53.482;9.862;2023-04-16T06:28:02;102132.84;;;7.71;100.00
23241;BME280;11789;53.482;9.862;2023-04-16T06:30:28;102131.16;;;7.73;100.00
23241;BME280;11789;53.482;9.862;2023-04-16T06:32:57;102132.13;;;7.77;100.00
23241;BME280;11789;53.482;9.862;2023-04-16T06:35:38;102137.28;;;7.77;100.00
23241;BME280;11789;53.482;9.862;2023-04-16T06:38:03;102143.47;;;7.82;100.00
23241;BME280;11789;53.482;9.862;2023-04-16T06:40:29;102146.09;;;7.85;100.00
23241;BME280;11789;53.482;9.862;2023-04-16T06:42:55;102144.53;;;7.90;100.00
23241;BME280;11789;53.482;9.862;2023-04-16T06:45:20;102149.81;;;7.93;100.00
23241;BME280;11789;53.482;9.862;2023-04-16T06:47:46;102151.63;;;7.96;100.00
23241;BME280;11789;53.482;9.862;2023-04-16T06:50:12;102154.19;;;7.96;100.00
23241;BME280;11789;53.482;9.862;2023-04-16T06:52:41;102150.81;;;7.98;100.00
23241;BME280;11789;53.482;9.862;2023-04-16T06:55:07;102156.88;;;8.00;100.00
23241;BME280;11789;53.482;9.862;2023-04-16T06:57:34;102150.91;;;8.01;100.00
23241;BME280;11789;53.482;9.862;2023-04-16T07:00:00;102156.06;;;8.01;100.00
23241;BME280;11789;53.482;9.862;2023-04-16T07:02:26;102151.84;;;8.03;100.00
23241;BME280;11789;53.482;9.862;2023-04-16T07:04:52;102159.56;;;8.03;100.00
23241;BME280;11789;53.482;9.862;2023-04-16T07:07:20;102160.44;;;8.04;100.00
23241;BME280;11789;53.482;9.862;2023-04-16T07:09:46;102160.47;;;8.05;100.00
23241;BME280;11789;53.482;9.862;2023-04-16T07:12:11;102165.56;;;8.04;100.00
23241;BME280;11789;53.482;9.862;2023-04-16T07:14:37;102172.44;;;8.03;100.00
23241;BME280;11789;53.482;9.862;2023-04-16T07:17:03;102169.13;;;8.07;100.00
23241;BME280;11789;53.482;9.862;2023-04-16T07:19:28;102172.56;;;8.08;100.00
23241;BME280;11789;53.482;9.862;2023-04-16T07:22:09;102172.63;;;8.10;100.00
23241;BME280;11789;53.482;9.862;2023-04-16T07:24:35;102171.84;;;8.12;100.00
23241;BME280;11789;53.482;9.862;2023-04-16T07:27:00;102172.63;;;8.10;100.00
23241;BME280;11789;53.482;9.862;2023-04-16T07:29:26;102176.16;;;8.13;100.00
23241;BME280;11789;53.482;9.862;2023-04-16T07:31:51;102170.31;;;8.19;100.00
23241;BME280;11789;53.482;9.862;2023-04-16T07:34:17;102173.03;;;8.23;100.00
23241;BME280;11789;53.482;9.862;2023-04-16T07:36:42;102178.41;;;8.31;100.00
23241;BME280;11789;53.482;9.862;2023-04-16T07:39:08;102172.69;;;8.40;100.00
23241;BME280;11789;53.482;9.862;2023-04-16T07:41:35;102171.97;;;8.45;100.00
23241;BME280;11789;53.482;9.862;2023-04-16T07:44:00;102176.50;;;8.52;100.00
23241;BME280;11789;53.482;9.862;2023-04-16T07:46:26;102180.91;;;8.56;100.00
23241;BME280;11789;53.482;9.862;2023-04-16T07:48:51;102178.44;;;8.61;100.00
23241;BME280;11789;53.482;9.862;2023-04-16T07:51:17;102183.59;;;8.61;100.00
23241;BME280;11789;53.482;9.862;2023-04-16T07:53:42;102186.41;;;8.69;100.00
23241;BME280;11789;53.482;9.862;2023-04-16T07:56:08;102174.41;;;8.69;100.00
23241;BME280;11789;53.482;9.862;2023-04-16T07:58:34;102175.41;;;8.74;100.00
23241;BME280;11789;53.482;9.862;2023-04-16T08:00:59;102191.72;;;8.75;100.00
23241;BME280;11789;53.482;9.862;2023-04-16T08:03:25;102185.00;;;8.80;100.00
23241;BME280;11789;53.482;9.862;2023-04-16T08:05:51;102181.53;;;8.78;100.00
23241;BME280;11789;53.482;9.862;2023-04-16T08:08:16;102184.03;;;8.76;100.00
23241;BME280;11789;53.482;9.862;2023-04-16T08:10:43;102186.50;;;8.72;100.00
23241;BME280;11789;53.482;9.862;2023-04-16T08:13:08;102194.28;;;8.73;100.00
23241;BME280;11789;53.482;9.862;2023-04-16T08:15:34;102195.25;;;8.77;100.00
23241;BME280;11789;53.482;9.862;2023-04-16T08:18:00;102203.03;;;8.78;100.00
23241;BME280;11789;53.482;9.862;2023-04-16T08:20:25;102204.00;;;8.82;100.00
23241;BME280;11789;53.482;9.862;2023-04-16T08:22:52;102208.25;;;8.81;100.00
23241;BME280;11789;53.482;9.862;2023-04-16T08:25:19;102204.94;;;8.86;100.00
23241;BME280;11789;53.482;9.862;2023-04-16T08:27:45;102195.56;;;8.89;100.00
23241;BME280;11789;53.482;9.862;2023-04-16T08:30:10;102206.91;;;8.94;100.00
23241;BME280;11789;53.482;9.862;2023-04-16T08:32:36;102205.31;;;8.99;100.00
23241;BME280;11789;53.482;9.862;2023-04-16T08:35:02;102204.59;;;9.05;100.00
23241;BME280;11789;53.482;9.862;2023-04-16T08:37:27;102208.16;;;9.08;100.00
23241;BME280;11789;53.482;9.862;2023-04-16T08:39:53;102210.75;;;9.10;100.00
23241;BME280;11789;53.482;9.862;2023-04-16T08:42:33;102213.56;;;9.18;100.00
23241;BME280;11789;53.482;9.862;2023-04-16T08:45:15;102218.03;;;9.25;100.00
23241;BME280;11789;53.482;9.862;2023-04-16T08:47:45;102214.72;;;9.29;100.00
23241;BME280;11789;53.482;9.862;2023-04-16T08:50:13;102226.69;;;9.27;99.51
23241;BME280;11789;53.482;9.862;2023-04-16T08:52:45;102222.75;;;9.41;99.81
23241;BME280;11789;53.482;9.862;2023-04-16T08:55:15;102232.69;;;9.59;98.77
23241;BME280;11789;53.482;9.862;2023-04-16T08:57:49;102228.53;;;9.66;97.69
23241;BME280;11789;53.482;9.862;2023-04-16T09:00:18;102232.00;;;9.66;96.02
23241;BME280;11789;53.482;9.862;2023-04-16T09:02:43;102227.84;;;9.73;96.63
23241;BME280;11789;53.482;9.862;2023-04-16T09:05:09;102229.87;;;9.84;96.88
23241;BME280;11789;53.482;9.862;2023-04-16T09:07:35;102222.28;;;9.92;95.76
23241;BME280;11789;53.482;9.862;2023-04-16T09:10:02;102229.41;;;10.02;95.68
23241;BME280;11789;53.482;9.862;2023-04-16T09:12:29;102227.13;;;10.14;95.75
23241;BME280;11789;53.482;9.862;2023-04-16T09:14:55;102224.94;;;10.30;95.21
23241;BME280;11789;53.482;9.862;2023-04-16T09:17:21;102229.16;;;10.26;92.81
23241;BME280;11789;53.482;9.862;2023-04-16T09:19:47;102221.62;;;10.37;91.92
23241;BME280;11789;53.482;9.862;2023-04-16T09:22:12;102232.06;;;10.40;92.34
23241;BME280;11789;53.482;9.862;2023-04-16T09:24:38;102227.16;;;10.54;91.48
23241;BME280;11789;53.482;9.862;2023-04-16T09:27:11;102229.16;;;10.65;91.10
23241;BME280;11789;53.482;9.862;2023-04-16T09:29:38;102234.22;;;10.61;90.64
23241;BME280;11789;53.482;9.862;2023-04-16T09:32:08;102229.03;;;10.59;91.39
23241;BME280;11789;53.482;9.862;2023-04-16T09:34:53;102226.81;;;10.79;90.50
23241;BME280;11789;53.482;9.862;2023-04-16T09:37:19;102237.81;;;10.69;89.83
23241;BME280;11789;53.482;9.862;2023-04-16T09:39:57;102234.25;;;10.62;91.53
23241;BME280;11789;53.482;9.862;2023-04-16T09:42:25;102242.78;;;10.58;92.28
23241;BME280;11789;53.482;9.862;2023-04-16T09:44:51;102237.78;;;10.68;92.88
23241;BME280;11789;53.482;9.862;2023-04-16T09:47:17;102247.25;;;10.65;91.57
23241;BME280;11789;53.482;9.862;2023-04-16T09:49:43;102246.31;;;10.63;91.31
23241;BME280;11789;53.482;9.862;2023-04-16T09:52:20;102251.50;;;10.63;91.99
23241;BME280;11789;53.482;9.862;2023-04-16T09:54:52;102242.12;;;10.69;92.15
23241;BME280;11789;53.482;9.862;2023-04-16T09:57:22;102257.53;;;10.64;91.95
23241;BME280;11789;53.482;9.862;2023-04-16T09:59:53;102253.28;;;10.66;91.97
23241;BME280;11789;53.482;9.862;2023-04-16T10:02:25;102259.41;;;10.70;92.40
23241;BME280;11789;53.482;9.862;2023-04-16T10:04:52;102262.16;;;10.79;92.46
23241;BME280;11789;53.482;9.862;2023-04-16T10:07:18;102265.69;;;10.81;91.34
23241;BME280;11789;53.482;9.862;2023-04-16T10:09:45;102266.53;;;10.81;91.55
23241;BME280;11789;53.482;9.862;2023-04-16T10:12:11;102254.25;;;10.71;91.41
23241;BME280;11789;53.482;9.862;2023-04-16T10:14:40;102269.69;;;10.68;91.32
23241;BME280;11789;53.482;9.862;2023-04-16T10:17:06;102271.31;;;10.63;90.77
23241;BME280;11789;53.482;9.862;2023-04-16T10:19:32;102269.50;;;10.59;91.10
23241;BME280;11789;53.482;9.862;2023-04-16T10:22:00;102268.59;;;10.57;92.86
23241;BME280;11789;53.482;9.862;2023-04-16T10:24:27;102277.97;;;10.52;91.78
23241;BME280;11789;53.482;9.862;2023-04-16T10:26:53;102276.12;;;10.46;92.05
23241;BME280;11789;53.482;9.862;2023-04-16T10:29:23;102277.81;;;10.44;92.52
23241;BME280;11789;53.482;9.862;2023-04-16T10:31:50;102279.50;;;10.44;92.52
23241;BME280;11789;53.482;9.862;2023-04-16T10:34:16;102287.25;;;10.44;93.04
23241;BME280;11789;53.482;9.862;2023-04-16T10:36:47;102287.34;;;10.47;92.80
23241;BME280;11789;53.482;9.862;2023-04-16T10:39:17;102289.06;;;10.46;92.77
23241;BME280;11789;53.482;9.862;2023-04-16T10:41:43;102297.69;;;10.47;93.04
23241;BME280;11789;53.482;9.862;2023-04-16T10:44:09;102294.16;;;10.43;92.19
23241;BME280;11789;53.482;9.862;2023-04-16T10:46:42;102293.94;;;10.34;92.04
23241;BME280;11789;53.482;9.862;2023-04-16T10:51:38;102304.13;;;10.28;92.37
23241;BME280;11789;53.482;9.862;2023-04-16T10:56:34;102297.13;;;10.24;93.41
23241;BME280;11789;53.482;9.862;2023-04-16T10:59:02;102303.88;;;10.19;93.13
23241;BME280;11789;53.482;9.862;2023-04-16T11:01:36;102299.50;;;10.14;93.60
23241;BME280;11789;53.482;9.862;2023-04-16T11:12:20;102301.22;;;10.14;93.64
23241;BME280;11789;53.482;9.862;2023-04-16T11:15:09;102301.25;;;10.16;94.31
23241;BME280;11789;53.482;9.862;2023-04-16T11:20:08;102300.81;;;10.33;92.98
23241;BME280;11789;53.482;9.862;2023-04-16T11:22:35;102307.91;;;10.42;92.83
23241;BME280;11789;53.482;9.862;2023-04-16T11:25:03;102306.34;;;10.49;92.41
23241;BME280;11789;53.482;9.862;2023-04-16T11:27:29;102310.69;;;10.50;91.85
23241;BME280;11789;53.482;9.862;2023-04-16T11:30:00;102310.63;;;10.47;91.88
23241;BME280;11789;53.482;9.862;2023-04-16T11:32:27;102308.00;;;10.45;92.78
23241;BME280;11789;53.482;9.862;2023-04-16T11:34:55;102307.91;;;10.41;92.23
23241;BME280;11789;53.482;9.862;2023-04-16T11:37:30;102303.38;;;10.32;92.64
23241;BME280;11789;53.482;9.862;2023-04-16T11:39:58;102306.91;;;10.35;93.85
23241;BME280;11789;53.482;9.862;2023-04-16T11:42:23;102308.56;;;10.33;94.33
23241;BME280;11789;53.482;9.862;2023-04-16T11:44:52;102311.87;;;10.28;93.89
23241;BME280;11789;53.482;9.862;2023-04-16T11:47:18;102315.41;;;10.30;94.66
23241;BME280;11789;53.482;9.862;2023-04-16T11:49:44;102322.28;;;10.29;94.35
23241;BME280;11789;53.482;9.862;2023-04-16T11:52:09;102313.69;;;10.30;94.39
23241;BME280;11789;53.482;9.862;2023-04-16T11:54:35;102317.16;;;10.32;94.70
23241;BME280;11789;53.482;9.862;2023-04-16T11:57:02;102324.06;;;10.32;94.89
23241;BME280;11789;53.482;9.862;2023-04-16T11:59:30;102326.62;;;10.30;94.28
23241;BME280;11789;53.482;9.862;2023-04-16T12:01:57;102330.91;;;10.30;93.76
23241;BME280;11789;53.482;9.862;2023-04-16T12:04:24;102328.22;;;10.25;93.85
23241;BME280;11789;53.482;9.862;2023-04-16T12:07:12;102337.56;;;10.22;93.81
23241;BME280;11789;53.482;9.862;2023-04-16T12:09:40;102336.69;;;10.21;94.23
23241;BME280;11789;53.482;9.862;2023-04-16T12:12:27;102340.03;;;10.17;94.07
23241;BME280;11789;53.482;9.862;2023-04-16T12:14:55;102340.06;;;10.19;94.48
23241;BME280;11789;53.482;9.862;2023-04-16T12:17:21;102339.16;;;10.17;94.73
23241;BME280;11789;53.482;9.862;2023-04-16T12:19:54;102339.91;;;10.12;94.74
23241;BME280;11789;53.482;9.862;2023-04-16T12:22:27;102340.72;;;10.10;95.55
23241;BME280;11789;53.482;9.862;2023-04-16T12:25:04;102347.53;;;10.06;95.79
23241;BME280;11789;53.482;9.862;2023-04-16T12:27:50;102346.53;;;10.01;95.00
23241;BME280;11789;53.482;9.862;2023-04-16T12:34:01;102348.22;;;9.99;95.42
23241;BME280;11789;53.482;9.862;2023-04-16T12:36:26;102347.28;;;9.97;95.26
23241;BME280;11789;53.482;9.862;2023-04-16T12:38:52;102348.22;;;9.99;95.13
23241;BME280;11789;53.482;9.862;2023-04-16T12:41:17;102349.94;;;9.99;95.58
23241;BME280;11789;53.482;9.862;2023-04-16T12:43:43;102356.03;;;10.02;95.76
23241;BME280;11789;53.482;9.862;2023-04-16T12:46:08;102351.78;;;10.04;96.08
23241;BME280;11789;53.482;9.862;2023-04-16T12:48:34;102349.19;;;10.04;95.42
23241;BME280;11789;53.482;9.862;2023-04-16T12:50:59;102352.59;;;10.03;95.45
23241;BME280;11789;53.482;9.862;2023-04-16T12:53:28;102347.44;;;10.03;95.60
23241;BME280;11789;53.482;9.862;2023-04-16T12:55:54;102345.69;;;10.02;95.39
23241;BME280;11789;53.482;9.862;2023-04-16T12:58:19;102345.78;;;10.05;95.93
23241;BME280;11789;53.482;9.862;2023-04-16T13:00:45;102349.31;;;10.09;95.62
23241;BME280;11789;53.482;9.862;2023-04-16T13:03:10;102353.59;;;10.08;95.71
23241;BME280;11789;53.482;9.862;2023-04-16T13:05:36;102350.25;;;10.12;96.07
23241;BME280;11789;53.482;9.862;2023-04-16T13:08:01;102346.06;;;10.18;95.15